createdAt,value
2023-03-11T00:01:14.537Z,80.38
2023-03-11T00:06:11.047Z,80.55
2023-03-11T00:11:07.646Z,80.67
2023-03-11T00:16:04.419Z,80.44
2023-03-11T00:21:01.193Z,80.69
2023-03-11T00:25:59.605Z,80.47
2023-03-11T00:30:56.125Z,80.66
2023-03-11T00:35:52.653Z,80.60
2023-03-11T00:40:49.748Z,80.24
2023-03-11T00:45:46.108Z,80.55
2023-03-11T00:50:42.980Z,80.66
2023-03-11T00:55:39.481Z,80.30
2023-03-11T01:00:36.021Z,80.34
2023-03-11T01:05:33.596Z,80.46
2023-03-11T01:10:35.360Z,80.68
2023-03-11T01:15:37.068Z,80.62
2023-03-11T01:20:34.448Z,80.55
2023-03-11T01:25:31.115Z,80.79
2023-03-11T01:30:28.691Z,80.57
2023-03-11T01:35:26.852Z,80.40
2023-03-11T01:40:30.370Z,80.43
2023-03-11T01:45:47.870Z,80.31
2023-03-11T01:50:49.779Z,80.21
2023-03-11T01:55:46.650Z,80.01
2023-03-11T02:00:43.713Z,80.27
2023-03-11T02:05:40.598Z,80.22
2023-03-11T02:10:39.170Z,80.11
2023-03-11T02:15:35.642Z,79.96
2023-03-11T02:20:49.363Z,80.32
2023-03-11T02:26:02.479Z,80.01
2023-03-11T02:30:59.154Z,80.13
2023-03-11T02:35:57.469Z,80.06
2023-03-11T02:40:59.439Z,80.16
2023-03-11T02:45:56.652Z,79.96
2023-03-11T02:50:53.410Z,79.81
2023-03-11T02:55:51.086Z,79.78
2023-03-11T03:00:47.883Z,79.79
2023-03-11T03:05:44.549Z,79.38
2023-03-11T03:10:41.274Z,79.59
2023-03-11T03:15:40.263Z,79.73
2023-03-11T03:20:36.900Z,79.68
2023-03-11T03:25:33.532Z,79.44
2023-03-11T03:30:34.976Z,79.44
2023-03-11T03:35:38.053Z,79.52
2023-03-11T03:40:54.141Z,79.36
2023-03-11T03:46:07.905Z,79.53
2023-03-11T03:51:16.503Z,79.18
2023-03-11T03:56:21.925Z,79.42
2023-03-11T04:07:03.240Z,79.14
2023-03-11T04:12:11.009Z,79.56
2023-03-11T04:17:07.385Z,79.44
2023-03-11T04:22:19.790Z,79.40
2023-03-11T04:27:36.760Z,79.45
2023-03-11T04:32:48.677Z,79.19
2023-03-11T04:43:26.685Z,79.33
2023-03-11T04:48:57.364Z,79.25
2023-03-11T04:54:13.225Z,78.92
2023-03-11T05:05:05.766Z,78.52
2023-03-11T05:10:19.020Z,78.63
2023-03-11T05:15:32.904Z,78.99
2023-03-11T05:32:10.907Z,78.46
2023-03-11T05:43:28.661Z,78.83
2023-03-11T05:54:37.758Z,78.29
2023-03-11T05:59:40.742Z,78.49
2023-03-11T06:28:31.879Z,78.51
2023-03-11T06:33:31.537Z,78.38
2023-03-11T06:38:29.104Z,78.46
2023-03-11T06:54:06.810Z,78.68
2023-03-11T06:59:03.297Z,78.81
2023-03-11T07:03:59.906Z,78.80
2023-03-11T07:08:59.455Z,78.67
2023-03-11T07:13:56.191Z,79.00
2023-03-11T07:18:54.822Z,78.47
2023-03-11T07:23:55.669Z,78.88
2023-03-11T07:28:54.122Z,78.59
2023-03-11T07:33:50.721Z,78.90
2023-03-11T07:38:47.328Z,78.58
2023-03-11T07:43:44.096Z,78.90
2023-03-11T07:48:42.709Z,78.55
2023-03-11T07:53:42.481Z,78.88
2023-03-11T07:58:39.204Z,78.72
2023-03-11T08:03:35.723Z,78.82
2023-03-11T08:08:32.242Z,78.83
2023-03-11T08:13:28.650Z,78.89
2023-03-11T08:18:25.136Z,78.44
2023-03-11T08:23:21.605Z,78.74
2023-03-11T08:28:18.125Z,78.74
2023-03-11T08:33:14.576Z,78.83
2023-03-11T08:38:10.941Z,78.87
2023-03-11T08:43:07.847Z,78.71
2023-03-11T08:48:04.413Z,78.82
2023-03-11T08:53:03.107Z,78.42
2023-03-11T08:57:59.539Z,78.45
2023-03-11T09:02:56.184Z,78.51
2023-03-11T09:07:52.690Z,78.20
2023-03-11T09:12:49.162Z,78.38
2023-03-11T09:17:45.714Z,78.43
2023-03-11T09:22:42.148Z,78.09
2023-03-11T09:27:38.837Z,78.28
2023-03-11T09:32:35.336Z,78.03
2023-03-11T09:37:32.065Z,77.90
2023-03-11T09:42:36.909Z,77.80
2023-03-11T09:47:51.386Z,77.74
2023-03-11T09:53:04.335Z,77.76
2023-03-11T09:58:04.752Z,77.55
2023-03-11T10:03:02.266Z,77.48
2023-03-11T10:08:34.498Z,77.33
2023-03-11T10:13:37.616Z,77.39
2023-03-11T10:19:16.670Z,77.28
2023-03-11T10:24:24.526Z,77.23
2023-03-11T10:29:26.145Z,77.42
2023-03-11T10:34:32.629Z,77.29
2023-03-11T10:39:30.182Z,77.35
2023-03-11T10:44:33.930Z,76.85
2023-03-11T10:49:30.643Z,76.79
2023-03-11T10:54:31.002Z,76.83
2023-03-11T10:59:47.786Z,76.63
2023-03-11T11:04:44.342Z,76.83
2023-03-11T11:09:40.927Z,76.86
2023-03-11T11:14:51.743Z,76.76
2023-03-11T11:19:48.923Z,76.53
2023-03-11T11:24:46.703Z,76.55
2023-03-11T11:29:43.490Z,76.34
2023-03-11T11:34:39.924Z,76.55
2023-03-11T11:39:44.147Z,76.63
2023-03-11T11:44:43.028Z,76.50
2023-03-11T11:49:48.702Z,76.20
2023-03-11T11:55:09.778Z,75.76
2023-03-11T12:00:18.855Z,75.64
2023-03-11T12:05:26.211Z,75.47
2023-03-11T12:10:37.387Z,75.46
2023-03-11T12:15:42.723Z,75.13
2023-03-11T12:20:45.797Z,74.57
2023-03-11T12:26:06.837Z,74.68
2023-03-11T12:31:06.699Z,74.88
2023-03-11T12:36:04.585Z,74.42
2023-03-11T12:41:07.123Z,74.04
2023-03-11T12:46:11.180Z,73.31
2023-03-11T12:51:27.658Z,72.47
2023-03-11T12:56:30.613Z,72.10
2023-03-11T13:01:31.240Z,71.70
2023-03-11T13:07:01.491Z,70.75
2023-03-11T13:11:57.952Z,70.54
2023-03-11T13:16:54.618Z,69.92
2023-03-11T13:21:51.089Z,69.63
2023-03-11T13:26:59.516Z,68.79
2023-03-11T13:32:14.636Z,68.22
2023-03-11T13:37:50.587Z,67.68
2023-03-11T13:42:51.926Z,68.00
2023-03-11T13:47:49.591Z,67.85
2023-03-11T13:52:53.571Z,67.39
2023-03-11T13:57:55.118Z,66.83
2023-03-11T14:02:55.057Z,66.72
2023-03-11T14:07:54.316Z,65.88
2023-03-11T14:23:57.003Z,65.48
2023-03-11T14:29:21.100Z,64.41
2023-03-11T14:34:27.808Z,64.31
2023-03-11T14:39:29.243Z,64.34
2023-03-11T14:44:30.871Z,63.87
2023-03-11T14:54:29.816Z,63.02
2023-03-11T14:59:46.724Z,62.85
2023-03-11T15:10:29.363Z,62.74
2023-03-11T15:15:33.631Z,62.29
2023-03-11T15:20:44.150Z,61.90
2023-03-11T15:25:51.558Z,61.82
2023-03-11T15:31:00.146Z,62.22
2023-03-11T15:36:23.006Z,62.04
2023-03-11T15:41:25.961Z,62.20
2023-03-11T15:46:22.555Z,62.21
2023-03-11T15:51:19.956Z,62.33
2023-03-11T15:56:23.738Z,61.95
2023-03-11T16:01:31.675Z,61.97
2023-03-11T16:06:34.250Z,62.23
2023-03-11T16:11:32.720Z,62.97
2023-03-11T16:16:29.831Z,63.65
2023-03-11T16:21:33.407Z,64.33
2023-03-11T16:26:30.250Z,64.91
2023-03-11T16:31:28.071Z,64.52
2023-03-11T16:36:25.549Z,64.87
2023-03-11T16:41:22.146Z,65.40
2023-03-11T16:46:18.638Z,65.71
2023-03-11T16:51:15.140Z,65.90
2023-03-11T16:56:11.640Z,65.91
2023-03-11T17:01:08.132Z,66.08
2023-03-11T17:06:04.982Z,66.71
2023-03-11T17:11:01.660Z,66.75
2023-03-11T17:16:02.052Z,67.20
2023-03-11T17:20:58.607Z,67.28
2023-03-11T17:25:55.091Z,67.40
2023-03-11T17:30:51.584Z,67.37
2023-03-11T17:35:48.088Z,67.61
2023-03-11T17:40:44.563Z,67.67
2023-03-11T17:45:41.059Z,68.05
2023-03-11T17:50:38.721Z,68.09
2023-03-11T17:55:39.378Z,68.08
2023-03-11T18:00:36.007Z,68.19
2023-03-11T18:05:32.443Z,68.30
2023-03-11T18:10:28.880Z,68.79
2023-03-11T18:15:25.435Z,68.56
2023-03-11T18:20:21.902Z,68.86
2023-03-11T18:25:18.466Z,69.13
2023-03-11T18:30:14.942Z,69.02
2023-03-11T18:35:11.469Z,69.05
2023-03-11T18:40:08.608Z,68.91
2023-03-11T18:45:05.868Z,69.56
2023-03-11T18:50:02.421Z,69.30
2023-03-11T18:54:59.104Z,69.40
2023-03-11T18:59:55.587Z,69.54
2023-03-11T19:04:52.194Z,69.55
2023-03-11T19:09:49.318Z,69.85
2023-03-11T19:14:45.702Z,69.92
2023-03-11T19:19:42.272Z,69.69
2023-03-11T19:24:38.891Z,69.74
2023-03-11T19:29:35.482Z,69.95
2023-03-11T19:34:32.183Z,69.85
2023-03-11T19:39:28.934Z,69.99
2023-03-11T19:44:32.737Z,69.90
2023-03-11T19:49:36.776Z,70.10
2023-03-11T19:54:33.562Z,70.00
2023-03-11T19:59:38.329Z,70.14
2023-03-11T20:04:37.753Z,70.19
2023-03-11T20:09:40.556Z,70.61
2023-03-11T20:14:42.427Z,70.66
2023-03-11T20:19:45.212Z,70.86
2023-03-11T20:24:44.821Z,70.58
2023-03-11T20:29:41.499Z,70.58
2023-03-11T20:34:38.293Z,70.29
2023-03-11T20:39:35.153Z,70.30
2023-03-11T20:44:32.295Z,70.69
2023-03-11T20:49:29.358Z,70.30
2023-03-11T20:54:26.199Z,70.00
2023-03-11T20:59:23.038Z,70.63
2023-03-11T21:04:24.693Z,70.15
2023-03-11T21:09:24.220Z,70.20
2023-03-11T21:14:20.906Z,70.18
2023-03-11T21:19:17.792Z,70.35
2023-03-11T21:24:17.921Z,70.39
2023-03-11T21:29:14.539Z,70.17
2023-03-11T21:34:11.898Z,70.49
2023-03-11T21:39:08.661Z,70.46
2023-03-11T21:44:06.096Z,70.47
2023-03-11T21:49:02.678Z,70.31
2023-03-11T21:53:59.381Z,70.58
2023-03-11T21:58:56.166Z,70.75
2023-03-11T22:03:53.001Z,70.84
2023-03-11T22:08:50.029Z,70.80
2023-03-11T22:13:47.810Z,70.90
2023-03-11T22:18:45.215Z,70.93
2023-03-11T22:23:42.437Z,70.93
2023-03-11T22:28:38.887Z,70.50
2023-03-11T22:33:35.363Z,70.94
2023-03-11T22:38:32.497Z,70.87
2023-03-11T22:43:28.976Z,70.37
2023-03-11T22:48:25.491Z,70.32
2023-03-11T22:53:23.189Z,70.71
2023-03-11T22:58:19.854Z,70.63
2023-03-11T23:03:16.410Z,70.21
2023-03-11T23:08:14.880Z,70.68
2023-03-11T23:13:11.866Z,70.67
2023-03-11T23:18:08.375Z,70.55
2023-03-11T23:23:05.216Z,70.56
2023-03-11T23:28:03.380Z,70.76
2023-03-11T23:33:02.628Z,70.74
2023-03-11T23:37:59.163Z,71.00
2023-03-11T23:42:57.680Z,70.84
2023-03-11T23:47:54.171Z,71.04
2023-03-11T23:52:50.641Z,70.98
2023-03-11T23:57:47.182Z,71.04
